createdAt,value
2017-09-25T00:01:22.275Z,13.20
2017-09-25T00:03:49.848Z,14.13
2017-09-25T00:06:17.371Z,13.70
2017-09-25T00:08:44.967Z,13.97
2017-09-25T00:11:12.516Z,15.40
2017-09-25T00:13:40.038Z,14.50
2017-09-25T00:16:08.386Z,15.13
2017-09-25T00:18:35.913Z,15.50
2017-09-25T00:21:03.455Z,15.10
2017-09-25T00:23:31.774Z,15.00
2017-09-25T00:25:59.297Z,15.40
2017-09-25T00:28:27.584Z,13.80
2017-09-25T00:30:55.163Z,14.90
2017-09-25T00:33:22.713Z,13.90
2017-09-25T00:35:51.034Z,14.17
2017-09-25T00:38:18.586Z,14.47
2017-09-25T00:40:46.156Z,12.37
2017-09-25T00:43:13.730Z,14.07
2017-09-25T00:45:41.254Z,13.57
2017-09-25T00:48:09.587Z,13.80
2017-09-25T00:50:37.127Z,13.40
2017-09-25T00:53:16.757Z,13.90
2017-09-25T00:55:51.103Z,13.00
2017-09-25T00:58:18.672Z,14.33
2017-09-25T01:00:58.187Z,14.60
2017-09-25T01:06:36.551Z,13.43
2017-09-25T01:09:04.107Z,13.00
2017-09-25T01:11:31.637Z,15.90
2017-09-25T01:13:59.186Z,14.37
2017-09-25T01:16:31.800Z,14.30
2017-09-25T01:18:59.358Z,13.90
2017-09-25T01:21:26.919Z,14.60
2017-09-25T01:23:54.487Z,15.37
2017-09-25T01:26:22.083Z,15.60
2017-09-25T01:28:49.635Z,15.60
2017-09-25T01:31:17.175Z,16.50
2017-09-25T01:33:45.704Z,17.50
2017-09-25T01:36:13.264Z,16.30
2017-09-25T01:38:40.802Z,18.50
2017-09-25T01:41:08.359Z,16.50
2017-09-25T01:43:35.905Z,17.70
2017-09-25T01:46:04.485Z,16.50
2017-09-25T01:48:32.011Z,15.90
2017-09-25T01:51:00.351Z,17.87
2017-09-25T01:53:27.876Z,17.60
2017-09-25T01:55:56.158Z,19.43
2017-09-25T01:58:24.495Z,17.47
2017-09-25T02:00:52.038Z,18.07
2017-09-25T02:03:19.610Z,17.83
2017-09-25T02:05:47.124Z,19.30
2017-09-25T02:08:15.432Z,19.10
2017-09-25T02:10:43.023Z,21.33
2017-09-25T02:13:10.608Z,20.83
2017-09-25T02:15:40.099Z,22.63
2017-09-25T02:18:07.657Z,22.03
2017-09-25T02:20:35.221Z,21.47
2017-09-25T02:23:02.802Z,21.57
2017-09-25T02:25:30.334Z,23.27
2017-09-25T02:27:57.930Z,27.63
2017-09-25T02:30:25.496Z,22.73
2017-09-25T02:32:53.028Z,24.07
2017-09-25T02:35:20.582Z,25.30
2017-09-25T02:37:48.115Z,27.80
2017-09-25T02:40:15.667Z,25.80
2017-09-25T02:42:43.238Z,26.80
2017-09-25T02:45:10.782Z,24.80
2017-09-25T02:47:38.374Z,27.27
2017-09-25T02:50:05.913Z,25.43
2017-09-25T02:52:33.484Z,28.30
2017-09-25T02:55:01.048Z,28.50
2017-09-25T02:57:28.603Z,30.57
2017-09-25T02:59:56.162Z,33.33
2017-09-25T03:02:23.687Z,34.37
2017-09-25T03:04:51.215Z,34.07
2017-09-25T03:07:18.775Z,33.87
2017-09-25T03:09:46.313Z,34.40
2017-09-25T03:12:13.872Z,32.70
2017-09-25T03:14:41.417Z,35.40
2017-09-25T03:17:08.954Z,40.80
2017-09-25T03:19:36.522Z,41.00
2017-09-25T03:22:04.819Z,43.30
2017-09-25T03:24:32.360Z,39.30
2017-09-25T03:27:00.688Z,41.80
2017-09-25T03:29:28.268Z,39.00
2017-09-25T03:31:55.927Z,39.17
2017-09-25T03:34:23.451Z,34.10
2017-09-25T03:36:51.742Z,38.37
2017-09-25T03:39:19.306Z,35.57
2017-09-25T03:41:47.625Z,34.20
2017-09-25T03:44:15.147Z,37.30
2017-09-25T03:46:43.469Z,37.00
2017-09-25T03:49:11.024Z,38.77
2017-09-25T03:51:38.598Z,43.23
2017-09-25T03:54:06.176Z,41.87
2017-09-25T03:56:33.723Z,41.57
2017-09-25T03:59:01.297Z,34.73
2017-09-25T04:01:28.821Z,36.77
2017-09-25T04:03:57.153Z,38.00
2017-09-25T04:06:24.689Z,43.10
2017-09-25T04:08:52.245Z,46.67
2017-09-25T04:11:19.808Z,45.43
2017-09-25T04:13:48.275Z,39.20
2017-09-25T04:16:15.855Z,40.70
2017-09-25T04:18:43.406Z,38.90
2017-09-25T04:21:11.717Z,35.60
2017-09-25T04:23:39.280Z,34.70
2017-09-25T04:26:06.831Z,36.13
2017-09-25T04:28:34.360Z,36.17
2017-09-25T04:31:02.097Z,37.97
2017-09-25T04:33:29.867Z,41.50
2017-09-25T04:35:57.436Z,43.97
2017-09-25T04:38:24.969Z,47.00
2017-09-25T04:40:52.508Z,52.47
2017-09-25T04:43:20.841Z,45.57
2017-09-25T04:45:48.378Z,38.97
2017-09-25T04:48:15.940Z,35.47
2017-09-25T04:50:43.485Z,42.07
2017-09-25T04:53:11.771Z,42.77
2017-09-25T04:55:40.338Z,44.77
2017-09-25T04:58:10.217Z,39.97
2017-09-25T05:00:37.766Z,41.53
2017-09-25T05:03:05.308Z,41.60
2017-09-25T05:05:32.882Z,39.90
2017-09-25T05:08:00.469Z,40.17
2017-09-25T05:13:34.249Z,43.87
2017-09-25T05:16:01.784Z,37.53
2017-09-25T05:18:30.116Z,36.10
2017-09-25T05:20:57.679Z,37.37
2017-09-25T05:23:25.224Z,35.20
2017-09-25T05:25:52.747Z,36.37
2017-09-25T05:28:20.328Z,31.50
2017-09-25T05:30:48.617Z,28.33
2017-09-25T05:33:16.942Z,27.87
2017-09-25T05:35:44.493Z,27.90
2017-09-25T05:38:12.030Z,26.93
2017-09-25T05:40:40.356Z,25.80
2017-09-25T05:43:09.593Z,29.10
2017-09-25T05:45:40.888Z,24.73
2017-09-25T05:48:08.803Z,23.67
2017-09-25T05:50:36.339Z,24.40
2017-09-25T05:53:03.887Z,27.37
2017-09-25T05:55:31.426Z,25.07
2017-09-25T05:58:00.044Z,23.27
2017-09-25T06:00:27.584Z,21.57
2017-09-25T06:02:55.892Z,23.40
2017-09-25T06:05:23.443Z,20.13
2017-09-25T06:07:50.990Z,23.60
2017-09-25T06:10:19.344Z,22.10
2017-09-25T06:12:46.892Z,22.23
2017-09-25T06:15:14.433Z,20.47
2017-09-25T06:17:41.973Z,21.10
2017-09-25T06:20:09.558Z,21.10
2017-09-25T06:22:37.082Z,21.57
2017-09-25T06:25:05.435Z,21.20
2017-09-25T06:27:32.989Z,21.50
2017-09-25T06:30:00.545Z,19.50
2017-09-25T06:32:28.114Z,21.07
2017-09-25T06:34:55.669Z,18.80
2017-09-25T06:37:23.246Z,20.30
2017-09-25T06:39:51.382Z,18.57
2017-09-25T06:42:19.871Z,18.87
2017-09-25T06:44:47.483Z,21.77
2017-09-25T06:47:15.048Z,19.00
2017-09-25T06:49:42.593Z,20.07
2017-09-25T06:52:10.118Z,20.90
2017-09-25T06:54:38.432Z,25.30
2017-09-25T06:57:06.000Z,24.10
2017-09-25T06:59:33.546Z,22.50
2017-09-25T07:02:01.103Z,24.37
2017-09-25T07:04:29.395Z,25.87
2017-09-25T07:06:56.923Z,24.60
2017-09-25T07:09:24.518Z,27.47
2017-09-25T07:11:52.832Z,25.57
2017-09-25T07:14:20.389Z,23.90
2017-09-25T07:16:48.871Z,24.63
2017-09-25T07:19:16.483Z,25.30
2017-09-25T07:21:44.037Z,25.40
2017-09-25T07:24:11.598Z,25.37
2017-09-25T07:26:39.155Z,24.03
2017-09-25T07:29:07.264Z,22.90
2017-09-25T07:31:35.608Z,22.30
2017-09-25T07:34:03.160Z,22.17
2017-09-25T07:36:30.718Z,21.23
2017-09-25T07:38:58.322Z,23.00
2017-09-25T07:41:25.876Z,20.37
2017-09-25T07:43:53.427Z,21.30
2017-09-25T07:46:20.962Z,20.70
2017-09-25T07:48:48.512Z,22.43
2017-09-25T07:51:16.935Z,20.00
2017-09-25T07:53:44.488Z,19.47
2017-09-25T07:56:12.062Z,18.53
2017-09-25T07:58:39.647Z,17.73
2017-09-25T08:01:07.193Z,17.60
2017-09-25T08:03:34.781Z,17.50
2017-09-25T08:06:02.331Z,18.13
2017-09-25T08:08:29.866Z,16.47
2017-09-25T08:10:57.397Z,16.03
2017-09-25T08:13:25.741Z,14.73
2017-09-25T08:16:14.850Z,14.17
2017-09-25T08:18:43.180Z,14.20
2017-09-25T08:21:10.758Z,14.43
2017-09-25T08:23:38.334Z,14.50
2017-09-25T08:26:06.249Z,15.00
2017-09-25T08:28:33.789Z,13.40
2017-09-25T08:31:02.128Z,12.83
2017-09-25T08:33:29.665Z,14.50
2017-09-25T08:35:57.217Z,14.70
2017-09-25T08:38:25.528Z,14.97
2017-09-25T08:40:53.976Z,14.73
2017-09-25T08:43:22.309Z,13.70
2017-09-25T08:45:49.865Z,14.93
2017-09-25T08:48:17.447Z,14.93
2017-09-25T08:50:44.996Z,14.90
2017-09-25T08:53:13.367Z,14.83
2017-09-25T08:55:40.915Z,16.37
2017-09-25T08:58:08.446Z,15.53
2017-09-25T09:00:36.037Z,15.73
2017-09-25T09:03:03.630Z,15.30
2017-09-25T09:05:31.177Z,17.33
2017-09-25T09:07:58.873Z,18.10
2017-09-25T09:10:26.914Z,18.73
2017-09-25T09:12:54.531Z,16.83
2017-09-25T09:15:22.471Z,17.97
2017-09-25T09:17:50.470Z,18.50
2017-09-25T09:20:18.047Z,16.10
2017-09-25T09:22:45.586Z,18.37
2017-09-25T09:25:13.173Z,18.73
2017-09-25T09:27:40.709Z,17.40
2017-09-25T09:30:08.234Z,18.37
2017-09-25T09:32:36.622Z,18.77
2017-09-25T09:35:04.932Z,17.43
2017-09-25T09:37:32.490Z,19.17
2017-09-25T09:40:00.061Z,17.80
2017-09-25T09:42:28.565Z,19.20
2017-09-25T09:44:56.158Z,19.30
2017-09-25T09:47:24.716Z,18.07
2017-09-25T09:49:52.282Z,18.40
2017-09-25T09:52:20.635Z,19.00
2017-09-25T09:54:48.203Z,17.43
2017-09-25T10:00:25.251Z,20.60
2017-09-25T10:02:52.764Z,19.37
2017-09-25T10:05:20.332Z,17.47
2017-09-25T10:07:47.917Z,17.50
2017-09-25T10:10:15.458Z,18.00
2017-09-25T10:12:43.034Z,19.63
2017-09-25T10:15:10.567Z,18.43
2017-09-25T10:17:38.105Z,15.97
2017-09-25T10:20:05.694Z,17.03
2017-09-25T10:22:33.248Z,15.70
2017-09-25T10:25:01.560Z,14.13
2017-09-25T10:27:29.114Z,14.77
2017-09-25T10:29:56.643Z,12.53
2017-09-25T10:32:24.241Z,15.10
2017-09-25T10:34:51.791Z,15.20
2017-09-25T10:37:20.120Z,13.77
2017-09-25T10:39:47.702Z,13.60
2017-09-25T10:42:15.261Z,14.27
2017-09-25T10:44:42.856Z,14.00
2017-09-25T10:47:11.180Z,11.97
2017-09-25T10:49:38.736Z,12.03
2017-09-25T10:52:06.265Z,11.27
2017-09-25T10:54:33.852Z,12.17
2017-09-25T10:57:01.498Z,11.17
2017-09-25T10:59:29.057Z,11.97
2017-09-25T11:01:57.500Z,13.40
2017-09-25T11:04:25.086Z,12.20
2017-09-25T11:06:52.662Z,10.50
2017-09-25T11:09:20.239Z,11.17
2017-09-25T11:11:47.850Z,10.80
2017-09-25T11:14:15.453Z,12.70
2017-09-25T11:16:43.009Z,10.10
2017-09-25T11:19:10.612Z,10.17
2017-09-25T11:21:38.165Z,11.63
2017-09-25T11:24:05.734Z,11.03
2017-09-25T11:26:34.058Z,11.60
2017-09-25T11:29:01.623Z,10.57
2017-09-25T11:31:29.197Z,9.60
2017-09-25T11:33:56.778Z,10.60
2017-09-25T11:36:24.300Z,10.30
2017-09-25T11:38:51.908Z,10.00
2017-09-25T11:41:19.496Z,8.90
2017-09-25T11:43:47.828Z,9.27
2017-09-25T11:46:15.378Z,9.60
2017-09-25T11:48:42.913Z,9.90
2017-09-25T11:51:11.262Z,9.07
2017-09-25T11:53:38.826Z,10.10
2017-09-25T11:56:06.383Z,11.27
2017-09-25T11:58:33.926Z,10.60
2017-09-25T12:01:01.475Z,10.40
2017-09-25T12:03:29.074Z,10.77
2017-09-25T12:05:56.639Z,11.03
2017-09-25T12:08:24.180Z,10.03
2017-09-25T12:10:51.726Z,9.67
2017-09-25T12:13:20.023Z,11.43
2017-09-25T12:15:47.712Z,10.90
2017-09-25T12:18:15.257Z,11.60
2017-09-25T12:20:43.709Z,11.00
2017-09-25T12:23:11.277Z,11.00
2017-09-25T12:25:40.029Z,10.50
2017-09-25T12:28:07.814Z,9.50
2017-09-25T12:30:35.385Z,9.60
2017-09-25T12:33:02.940Z,8.73
2017-09-25T12:35:30.945Z,10.50
2017-09-25T12:37:59.326Z,9.20
2017-09-25T12:40:27.617Z,8.03
2017-09-25T12:42:55.917Z,9.03
2017-09-25T12:45:23.440Z,8.13
2017-09-25T12:47:51.007Z,8.30
2017-09-25T12:50:18.586Z,8.30
2017-09-25T12:52:46.896Z,7.70
2017-09-25T12:55:14.451Z,8.20
2017-09-25T12:57:41.986Z,8.07
2017-09-25T13:00:10.284Z,7.87
2017-09-25T13:02:38.631Z,7.63
2017-09-25T13:05:06.193Z,7.23
2017-09-25T13:07:33.736Z,7.00
2017-09-25T13:10:01.294Z,7.30
2017-09-25T13:12:28.914Z,7.47
2017-09-25T13:14:56.481Z,7.60
2017-09-25T13:17:24.831Z,6.87
2017-09-25T13:19:52.404Z,7.47
2017-09-25T13:22:19.971Z,8.77
2017-09-25T13:24:49.398Z,9.30
2017-09-25T13:27:20.223Z,8.80
2017-09-25T13:29:48.796Z,10.10
2017-09-25T13:32:19.607Z,10.17
2017-09-25T13:34:48.937Z,9.60
2017-09-25T13:37:20.251Z,11.03
2017-09-25T13:39:51.321Z,9.60
2017-09-25T13:42:23.477Z,9.90
2017-09-25T13:44:52.916Z,9.43
2017-09-25T13:47:24.556Z,9.60
2017-09-25T13:49:56.789Z,9.57
2017-09-25T13:52:26.331Z,10.23
2017-09-25T13:54:55.673Z,10.37
2017-09-25T13:57:24.551Z,10.57
2017-09-25T14:02:28.775Z,11.30
2017-09-25T14:04:56.346Z,10.20
2017-09-25T14:07:23.900Z,10.23
2017-09-25T14:09:51.488Z,11.03
2017-09-25T14:12:19.150Z,11.03
2017-09-25T14:14:46.698Z,10.50
2017-09-25T14:17:15.270Z,11.37
2017-09-25T14:19:42.820Z,11.70
2017-09-25T14:22:10.367Z,11.73
2017-09-25T14:24:37.963Z,11.07
2017-09-25T14:27:05.500Z,10.10
2017-09-25T14:29:33.062Z,9.80
2017-09-25T14:32:00.634Z,10.43
2017-09-25T14:34:28.168Z,10.07
2017-09-25T14:36:55.755Z,10.00
2017-09-25T14:39:24.081Z,9.87
2017-09-25T14:41:51.648Z,12.70
2017-09-25T14:44:19.192Z,11.03
2017-09-25T14:46:46.744Z,12.10
2017-09-25T14:49:14.321Z,11.50
2017-09-25T14:51:41.888Z,11.03
2017-09-25T14:54:09.427Z,9.57
2017-09-25T14:56:37.027Z,10.07
2017-09-25T14:59:04.734Z,10.10
2017-09-25T15:01:32.306Z,9.53
2017-09-25T15:04:00.644Z,9.43
2017-09-25T15:06:28.214Z,9.57
2017-09-25T15:08:56.171Z,9.73
2017-09-25T15:11:23.737Z,8.13
2017-09-25T15:13:51.689Z,8.90
2017-09-25T15:16:19.320Z,9.10
2017-09-25T15:18:46.869Z,9.20
2017-09-25T15:21:14.460Z,10.10
2017-09-25T15:23:42.836Z,9.90
2017-09-25T15:26:11.182Z,10.50
2017-09-25T15:28:38.754Z,10.00
2017-09-25T15:31:06.413Z,10.40
2017-09-25T15:33:34.027Z,9.80
2017-09-25T15:36:02.380Z,10.93
2017-09-25T15:38:29.985Z,9.80
2017-09-25T15:40:59.223Z,10.27
2017-09-25T15:43:28.893Z,9.53
2017-09-25T15:45:58.480Z,9.80
2017-09-25T15:48:29.265Z,9.67
2017-09-25T15:50:57.143Z,9.27
2017-09-25T15:53:25.603Z,9.50
2017-09-25T15:55:58.170Z,10.00
2017-09-25T15:58:27.612Z,8.87
2017-09-25T16:00:56.900Z,9.30
2017-09-25T16:03:25.289Z,10.10
2017-09-25T16:05:55.193Z,9.50
2017-09-25T16:08:24.464Z,10.93
2017-09-25T16:11:21.537Z,10.13
2017-09-25T16:13:50.930Z,11.20
2017-09-25T16:16:21.841Z,11.03
2017-09-25T16:18:50.828Z,10.70
2017-09-25T16:24:48.872Z,12.50
2017-09-25T16:27:18.692Z,11.67
2017-09-25T16:29:46.256Z,12.80
2017-09-25T16:32:13.928Z,11.03
2017-09-25T16:34:42.541Z,12.47
2017-09-25T16:37:12.443Z,13.83
2017-09-25T16:39:44.739Z,12.03
2017-09-25T16:42:14.256Z,13.40
2017-09-25T16:44:41.837Z,12.10
2017-09-25T16:47:10.176Z,11.93
2017-09-25T16:49:37.745Z,14.87
2017-09-25T16:52:05.366Z,12.17
2017-09-25T16:54:32.951Z,14.17
2017-09-25T16:57:00.533Z,12.30
2017-09-25T16:59:28.104Z,13.70
2017-09-25T17:01:55.742Z,14.23
2017-09-25T17:04:23.323Z,14.27
2017-09-25T17:06:51.671Z,15.30
2017-09-25T17:09:19.200Z,15.10
2017-09-25T17:11:46.784Z,15.40
2017-09-25T17:14:15.118Z,16.70
2017-09-25T17:16:42.763Z,16.60
2017-09-25T17:19:10.287Z,17.50
2017-09-25T17:21:39.897Z,19.07
2017-09-25T17:24:09.355Z,17.53
2017-09-25T17:26:36.934Z,18.53
2017-09-25T17:29:04.514Z,18.00
2017-09-25T17:31:32.073Z,17.97
2017-09-25T17:33:59.620Z,18.63
2017-09-25T17:36:27.165Z,19.07
2017-09-25T17:38:54.767Z,18.67
2017-09-25T17:41:22.282Z,18.93
2017-09-25T17:43:50.900Z,18.90
2017-09-25T17:46:18.449Z,17.87
2017-09-25T17:48:45.996Z,19.53
2017-09-25T17:51:14.313Z,19.33
2017-09-25T17:53:41.890Z,18.13
2017-09-25T17:56:09.419Z,20.47
2017-09-25T17:58:36.966Z,18.77
2017-09-25T18:01:04.567Z,18.97
2017-09-25T18:03:32.185Z,19.37
2017-09-25T18:06:00.623Z,19.50
2017-09-25T18:08:28.237Z,19.30
2017-09-25T18:10:56.555Z,19.77
2017-09-25T18:13:24.105Z,20.40
2017-09-25T18:15:51.738Z,21.90
2017-09-25T18:18:19.276Z,22.00
2017-09-25T18:20:47.068Z,21.40
2017-09-25T18:23:28.822Z,20.17
2017-09-25T18:25:57.678Z,20.27
2017-09-25T18:28:33.023Z,20.07
2017-09-25T18:31:00.666Z,24.17
2017-09-25T18:33:32.624Z,21.50
2017-09-25T18:36:05.578Z,22.73
2017-09-25T18:38:37.216Z,24.13
2017-09-25T18:41:05.052Z,21.73
2017-09-25T18:43:46.721Z,22.67
2017-09-25T18:46:16.691Z,24.90
2017-09-25T18:48:49.315Z,23.30
2017-09-25T18:51:21.833Z,24.90
2017-09-25T18:53:53.158Z,24.20
2017-09-25T18:56:21.586Z,24.20
2017-09-25T18:58:51.580Z,25.33
2017-09-25T19:01:24.359Z,24.63
2017-09-25T19:03:54.573Z,26.40
2017-09-25T19:06:23.895Z,25.10
2017-09-25T19:08:53.974Z,26.00
2017-09-25T19:11:25.475Z,24.93
2017-09-25T19:13:54.274Z,25.03
2017-09-25T19:16:23.630Z,25.53
2017-09-25T19:18:52.462Z,27.27
2017-09-25T19:21:22.933Z,29.13
2017-09-25T19:23:53.697Z,29.50
2017-09-25T19:26:23.588Z,27.40
2017-09-25T19:28:52.798Z,29.00
2017-09-25T19:31:21.707Z,28.67
2017-09-25T19:33:51.189Z,29.70
2017-09-25T19:36:22.804Z,29.10
2017-09-25T19:38:55.191Z,28.50
2017-09-25T19:41:25.410Z,33.77
2017-09-25T19:43:55.494Z,31.23
2017-09-25T19:46:26.201Z,32.57
2017-09-25T19:49:00.631Z,37.13
2017-09-25T19:51:31.989Z,37.87
2017-09-25T19:54:08.352Z,36.83
2017-09-25T19:56:41.443Z,33.70
2017-09-25T20:04:57.163Z,33.17
2017-09-25T20:07:25.437Z,33.07
2017-09-25T20:09:55.998Z,35.23
2017-09-25T20:12:29.476Z,29.93
2017-09-25T20:15:17.753Z,33.27
2017-09-25T20:18:01.512Z,32.90
2017-09-25T20:20:32.832Z,33.33
2017-09-25T20:23:05.131Z,31.47
2017-09-25T20:25:36.223Z,34.93
2017-09-25T20:28:03.770Z,33.07
2017-09-25T20:30:31.274Z,31.33
2017-09-25T20:32:59.624Z,31.57
2017-09-25T20:35:27.144Z,31.00
2017-09-25T20:37:55.585Z,34.57
2017-09-25T20:40:23.802Z,35.63
2017-09-25T20:42:58.771Z,41.60
2017-09-25T20:45:26.343Z,38.50
2017-09-25T20:47:53.911Z,37.33
2017-09-25T20:50:21.485Z,36.70
2017-09-25T20:52:49.054Z,38.77
2017-09-25T20:55:16.595Z,35.10
2017-09-25T20:57:44.173Z,36.80
2017-09-25T21:00:11.718Z,36.13
2017-09-25T21:02:39.281Z,36.23
2017-09-25T21:05:06.846Z,37.77
2017-09-25T21:07:34.395Z,37.00
2017-09-25T21:10:01.939Z,35.57
2017-09-25T21:12:30.301Z,38.50
2017-09-25T21:14:57.845Z,35.30
2017-09-25T21:17:25.401Z,40.00
2017-09-25T21:19:53.979Z,39.67
2017-09-25T21:22:21.535Z,34.50
2017-09-25T21:24:49.125Z,33.60
2017-09-25T21:27:20.612Z,35.97
2017-09-25T21:29:49.955Z,32.10
2017-09-25T21:32:17.520Z,30.60
2017-09-25T21:34:45.103Z,36.17
2017-09-25T21:37:12.662Z,36.07
2017-09-25T21:39:41.256Z,37.93
2017-09-25T21:42:08.849Z,37.57
2017-09-25T21:44:36.393Z,35.10
2017-09-25T21:47:03.924Z,35.17
2017-09-25T21:49:31.480Z,39.10
2017-09-25T21:51:59.051Z,45.77
2017-09-25T21:54:27.374Z,46.60
2017-09-25T21:56:54.935Z,56.03
2017-09-25T21:59:22.563Z,46.03
2017-09-25T22:01:50.156Z,45.53
2017-09-25T22:04:18.459Z,38.90
2017-09-25T22:06:46.020Z,37.20
2017-09-25T22:09:13.623Z,36.17
2017-09-25T22:11:42.056Z,35.83
2017-09-25T22:14:09.620Z,37.30
2017-09-25T22:16:37.171Z,35.93
2017-09-25T22:19:04.752Z,37.27
2017-09-25T22:21:32.326Z,35.97
2017-09-25T22:24:00.911Z,35.93
2017-09-25T22:26:28.462Z,38.03
2017-09-25T22:28:56.044Z,39.40
2017-09-25T22:31:23.572Z,40.87
2017-09-25T22:33:51.146Z,43.33
2017-09-25T22:36:18.744Z,33.50
2017-09-25T22:38:46.331Z,32.90
2017-09-25T22:41:14.659Z,31.00
2017-09-25T22:43:52.146Z,29.37
2017-09-25T22:46:19.705Z,36.57
2017-09-25T22:48:47.244Z,39.23
2017-09-25T22:51:15.579Z,43.60
2017-09-25T22:53:43.131Z,35.70
2017-09-25T22:56:10.723Z,39.80
2017-09-25T22:58:38.292Z,33.80
2017-09-25T23:01:05.892Z,31.50
2017-09-25T23:03:34.366Z,33.50
2017-09-25T23:06:02.715Z,32.53
2017-09-25T23:08:30.286Z,30.17
2017-09-25T23:10:57.836Z,32.77
2017-09-25T23:13:25.400Z,34.13
2017-09-25T23:15:52.967Z,29.47
2017-09-25T23:18:20.501Z,31.07
2017-09-25T23:20:48.042Z,28.97
2017-09-25T23:23:16.342Z,31.13
2017-09-25T23:25:43.865Z,31.50
2017-09-25T23:28:11.399Z,35.10
2017-09-25T23:30:53.709Z,35.50
2017-09-25T23:33:21.255Z,33.00
2017-09-25T23:35:48.804Z,31.10
2017-09-25T23:38:16.343Z,29.97
2017-09-25T23:40:44.662Z,28.17
2017-09-25T23:43:12.958Z,27.50
2017-09-25T23:45:40.535Z,25.50
2017-09-25T23:48:08.097Z,26.30
2017-09-25T23:50:35.635Z,26.93
2017-09-25T23:53:03.179Z,26.17
2017-09-25T23:55:30.752Z,27.37
2017-09-25T23:57:58.295Z,26.67
